9XS9 weather

Rancho Verde Airport
Brenham, Texas, United States

Public forecast

Using degrees Fahrenheit for public forecast. Weather courtesy of forecast.io.

Closest aviation weather report (METAR) to Rancho Verde Airport

Closest report is Brenham Municipal Airport, 5.4 nm (10.0 km) SE. Retrieved 2019/11/18 07:35 UTC (5 minutes ago):

K11R 180735Z AUTO 24003KT 7SM CLR 09/08 A3001 RMK AO2 T00850080

Closest aviation forecast (TAF) to Rancho Verde Airport

Closest forecast is Easterwood Field, 18.8 nm (34.9 km) NNE. Retrieved 2019/11/18 06:24 UTC (1 hour ago):

TAF KCLL 180522Z 1806/1906 34004KT P6SM SKC